sensor_id;sensor_type;location;lat;lon;timestamp;P1;durP1;ratioP1;P2;durP2;ratioP2
19951;SDS011;10137;49.406;19.484;2022-09-25T00:00:49;24.43;;;14.47;;
19951;SDS011;10137;49.406;19.484;2022-09-25T00:03:18;27.50;;;14.60;;
19951;SDS011;10137;49.406;19.484;2022-09-25T00:05:46;27.10;;;15.87;;
19951;SDS011;10137;49.406;19.484;2022-09-25T00:08:15;33.13;;;17.90;;
19951;SDS011;10137;49.406;19.484;2022-09-25T00:10:43;55.73;;;26.77;;
19951;SDS011;10137;49.406;19.484;2022-09-25T00:13:12;28.20;;;16.20;;
19951;SDS011;10137;49.406;19.484;2022-09-25T00:15:44;27.60;;;15.00;;
19951;SDS011;10137;49.406;19.484;2022-09-25T00:18:12;40.57;;;18.23;;
19951;SDS011;10137;49.406;19.484;2022-09-25T00:20:39;35.93;;;16.97;;
19951;SDS011;10137;49.406;19.484;2022-09-25T00:23:05;27.77;;;15.83;;
19951;SDS011;10137;49.406;19.484;2022-09-25T00:25:34;26.90;;;15.23;;
19951;SDS011;10137;49.406;19.484;2022-09-25T00:28:01;27.37;;;15.07;;
19951;SDS011;10137;49.406;19.484;2022-09-25T00:30:29;36.63;;;17.40;;
19951;SDS011;10137;49.406;19.484;2022-09-25T00:32:56;29.63;;;16.00;;
19951;SDS011;10137;49.406;19.484;2022-09-25T00:35:22;29.10;;;15.63;;
19951;SDS011;10137;49.406;19.484;2022-09-25T00:37:50;28.60;;;15.77;;
19951;SDS011;10137;49.406;19.484;2022-09-25T00:40:17;25.37;;;15.50;;
19951;SDS011;10137;49.406;19.484;2022-09-25T00:42:45;27.73;;;15.50;;
19951;SDS011;10137;49.406;19.484;2022-09-25T00:45:14;25.07;;;15.73;;
19951;SDS011;10137;49.406;19.484;2022-09-25T00:50:31;31.40;;;17.07;;
19951;SDS011;10137;49.406;19.484;2022-09-25T00:53:02;34.50;;;16.47;;
19951;SDS011;10137;49.406;19.484;2022-09-25T00:55:34;24.07;;;14.03;;
19951;SDS011;10137;49.406;19.484;2022-09-25T00:58:04;29.27;;;15.47;;
19951;SDS011;10137;49.406;19.484;2022-09-25T01:00:32;27.27;;;14.93;;
19951;SDS011;10137;49.406;19.484;2022-09-25T01:03:00;46.07;;;20.73;;
19951;SDS011;10137;49.406;19.484;2022-09-25T01:05:30;53.90;;;23.37;;
19951;SDS011;10137;49.406;19.484;2022-09-25T01:08:02;62.70;;;30.43;;
19951;SDS011;10137;49.406;19.484;2022-09-25T01:10:32;49.80;;;26.17;;
19951;SDS011;10137;49.406;19.484;2022-09-25T01:12:59;30.30;;;18.00;;
19951;SDS011;10137;49.406;19.484;2022-09-25T01:15:30;29.77;;;16.90;;
19951;SDS011;10137;49.406;19.484;2022-09-25T01:18:05;25.27;;;16.07;;
19951;SDS011;10137;49.406;19.484;2022-09-25T01:23:45;22.20;;;15.53;;
19951;SDS011;10137;49.406;19.484;2022-09-25T01:29:35;24.13;;;13.97;;
19951;SDS011;10137;49.406;19.484;2022-09-25T01:32:07;24.80;;;14.37;;
19951;SDS011;10137;49.406;19.484;2022-09-25T01:34:42;23.90;;;14.20;;
19951;SDS011;10137;49.406;19.484;2022-09-25T01:37:16;25.10;;;13.27;;
19951;SDS011;10137;49.406;19.484;2022-09-25T01:39:53;20.53;;;13.03;;
19951;SDS011;10137;49.406;19.484;2022-09-25T01:42:28;49.37;;;26.07;;
19951;SDS011;10137;49.406;19.484;2022-09-25T01:45:02;28.77;;;16.10;;
19951;SDS011;10137;49.406;19.484;2022-09-25T01:47:33;23.97;;;14.67;;
19951;SDS011;10137;49.406;19.484;2022-09-25T01:50:04;21.43;;;12.03;;
19951;SDS011;10137;49.406;19.484;2022-09-25T01:52:36;20.17;;;12.47;;
19951;SDS011;10137;49.406;19.484;2022-09-25T01:55:07;21.37;;;12.43;;
19951;SDS011;10137;49.406;19.484;2022-09-25T01:57:39;21.13;;;12.30;;
19951;SDS011;10137;49.406;19.484;2022-09-25T02:00:13;17.30;;;11.23;;
19951;SDS011;10137;49.406;19.484;2022-09-25T02:02:43;18.97;;;10.57;;
19951;SDS011;10137;49.406;19.484;2022-09-25T02:05:13;18.67;;;11.20;;
19951;SDS011;10137;49.406;19.484;2022-09-25T02:07:46;18.27;;;11.30;;
19951;SDS011;10137;49.406;19.484;2022-09-25T02:10:17;19.40;;;10.43;;
19951;SDS011;10137;49.406;19.484;2022-09-25T02:12:49;19.20;;;11.13;;
19951;SDS011;10137;49.406;19.484;2022-09-25T02:15:22;19.03;;;11.10;;
19951;SDS011;10137;49.406;19.484;2022-09-25T02:17:55;25.80;;;10.97;;
19951;SDS011;10137;49.406;19.484;2022-09-25T02:20:42;18.63;;;11.50;;
19951;SDS011;10137;49.406;19.484;2022-09-25T02:23:15;18.73;;;11.30;;
19951;SDS011;10137;49.406;19.484;2022-09-25T02:25:47;19.37;;;12.03;;
19951;SDS011;10137;49.406;19.484;2022-09-25T02:28:23;23.90;;;13.00;;
19951;SDS011;10137;49.406;19.484;2022-09-25T02:30:53;20.80;;;13.37;;
19951;SDS011;10137;49.406;19.484;2022-09-25T02:33:23;21.60;;;12.67;;
19951;SDS011;10137;49.406;19.484;2022-09-25T02:35:50;19.33;;;12.07;;
19951;SDS011;10137;49.406;19.484;2022-09-25T02:38:17;21.50;;;12.97;;
19951;SDS011;10137;49.406;19.484;2022-09-25T02:40:48;21.00;;;12.93;;
19951;SDS011;10137;49.406;19.484;2022-09-25T02:43:24;22.60;;;12.90;;
19951;SDS011;10137;49.406;19.484;2022-09-25T02:46:05;18.93;;;12.20;;
19951;SDS011;10137;49.406;19.484;2022-09-25T02:48:40;18.60;;;12.03;;
19951;SDS011;10137;49.406;19.484;2022-09-25T02:51:17;21.07;;;12.47;;
19951;SDS011;10137;49.406;19.484;2022-09-25T02:53:49;21.37;;;12.53;;
19951;SDS011;10137;49.406;19.484;2022-09-25T02:56:23;18.83;;;12.50;;
19951;SDS011;10137;49.406;19.484;2022-09-25T02:58:54;21.37;;;13.10;;
19951;SDS011;10137;49.406;19.484;2022-09-25T03:01:27;22.53;;;13.03;;
19951;SDS011;10137;49.406;19.484;2022-09-25T03:03:57;19.17;;;11.37;;
19951;SDS011;10137;49.406;19.484;2022-09-25T03:06:25;19.07;;;11.73;;
19951;SDS011;10137;49.406;19.484;2022-09-25T03:08:54;19.70;;;11.90;;
19951;SDS011;10137;49.406;19.484;2022-09-25T03:11:23;20.70;;;11.90;;
19951;SDS011;10137;49.406;19.484;2022-09-25T03:13:54;19.63;;;11.43;;
19951;SDS011;10137;49.406;19.484;2022-09-25T03:16:25;20.50;;;11.63;;
19951;SDS011;10137;49.406;19.484;2022-09-25T03:18:58;21.43;;;11.30;;
19951;SDS011;10137;49.406;19.484;2022-09-25T03:21:25;19.77;;;11.50;;
19951;SDS011;10137;49.406;19.484;2022-09-25T03:23:52;19.83;;;11.13;;
19951;SDS011;10137;49.406;19.484;2022-09-25T03:26:21;17.17;;;11.00;;
19951;SDS011;10137;49.406;19.484;2022-09-25T03:28:49;20.07;;;11.60;;
19951;SDS011;10137;49.406;19.484;2022-09-25T03:31:16;18.07;;;11.43;;
19951;SDS011;10137;49.406;19.484;2022-09-25T03:33:44;17.63;;;10.93;;
19951;SDS011;10137;49.406;19.484;2022-09-25T03:36:13;18.87;;;12.00;;
19951;SDS011;10137;49.406;19.484;2022-09-25T03:38:42;16.27;;;9.73;;
19951;SDS011;10137;49.406;19.484;2022-09-25T03:41:12;21.53;;;11.43;;
19951;SDS011;10137;49.406;19.484;2022-09-25T03:43:44;16.33;;;11.20;;
19951;SDS011;10137;49.406;19.484;2022-09-25T03:46:16;20.10;;;11.87;;
19951;SDS011;10137;49.406;19.484;2022-09-25T03:48:46;24.30;;;12.17;;
19951;SDS011;10137;49.406;19.484;2022-09-25T03:51:13;20.17;;;11.57;;
19951;SDS011;10137;49.406;19.484;2022-09-25T03:53:40;18.10;;;10.97;;
19951;SDS011;10137;49.406;19.484;2022-09-25T03:56:08;17.50;;;11.37;;
19951;SDS011;10137;49.406;19.484;2022-09-25T03:58:37;18.30;;;11.30;;
19951;SDS011;10137;49.406;19.484;2022-09-25T04:01:04;21.50;;;12.40;;
19951;SDS011;10137;49.406;19.484;2022-09-25T04:03:31;21.83;;;11.90;;
19951;SDS011;10137;49.406;19.484;2022-09-25T04:06:00;17.53;;;10.83;;
19951;SDS011;10137;49.406;19.484;2022-09-25T04:08:30;31.83;;;11.57;;
19951;SDS011;10137;49.406;19.484;2022-09-25T04:10:58;56.03;;;14.40;;
19951;SDS011;10137;49.406;19.484;2022-09-25T04:13:26;71.97;;;16.27;;
19951;SDS011;10137;49.406;19.484;2022-09-25T04:15:55;71.83;;;17.20;;
19951;SDS011;10137;49.406;19.484;2022-09-25T04:18:23;56.17;;;15.67;;
19951;SDS011;10137;49.406;19.484;2022-09-25T04:20:51;60.63;;;17.60;;
19951;SDS011;10137;49.406;19.484;2022-09-25T04:23:19;47.53;;;17.47;;
19951;SDS011;10137;49.406;19.484;2022-09-25T04:25:46;57.20;;;16.10;;
19951;SDS011;10137;49.406;19.484;2022-09-25T04:28:13;38.57;;;17.07;;
19951;SDS011;10137;49.406;19.484;2022-09-25T04:30:40;29.47;;;14.83;;
19951;SDS011;10137;49.406;19.484;2022-09-25T04:33:08;28.50;;;14.33;;
19951;SDS011;10137;49.406;19.484;2022-09-25T04:35:53;23.40;;;14.70;;
19951;SDS011;10137;49.406;19.484;2022-09-25T04:38:22;32.23;;;16.30;;
19951;SDS011;10137;49.406;19.484;2022-09-25T04:40:49;31.87;;;16.27;;
19951;SDS011;10137;49.406;19.484;2022-09-25T04:43:16;37.57;;;19.83;;
19951;SDS011;10137;49.406;19.484;2022-09-25T04:45:43;31.50;;;17.97;;
19951;SDS011;10137;49.406;19.484;2022-09-25T04:48:12;31.50;;;15.90;;
19951;SDS011;10137;49.406;19.484;2022-09-25T04:50:39;26.60;;;14.30;;
19951;SDS011;10137;49.406;19.484;2022-09-25T04:53:12;22.67;;;13.07;;
19951;SDS011;10137;49.406;19.484;2022-09-25T04:55:40;22.23;;;12.67;;
19951;SDS011;10137;49.406;19.484;2022-09-25T04:58:07;22.50;;;11.90;;
19951;SDS011;10137;49.406;19.484;2022-09-25T05:00:35;24.23;;;11.80;;
19951;SDS011;10137;49.406;19.484;2022-09-25T05:03:03;27.90;;;12.37;;
19951;SDS011;10137;49.406;19.484;2022-09-25T05:05:31;23.27;;;12.50;;
19951;SDS011;10137;49.406;19.484;2022-09-25T05:07:59;50.83;;;15.93;;
19951;SDS011;10137;49.406;19.484;2022-09-25T05:10:28;75.17;;;18.47;;
19951;SDS011;10137;49.406;19.484;2022-09-25T05:12:59;71.40;;;18.20;;
19951;SDS011;10137;49.406;19.484;2022-09-25T05:15:27;73.40;;;18.93;;
19951;SDS011;10137;49.406;19.484;2022-09-25T05:17:59;67.60;;;18.17;;
19951;SDS011;10137;49.406;19.484;2022-09-25T05:20:26;56.97;;;18.43;;
19951;SDS011;10137;49.406;19.484;2022-09-25T05:22:54;90.70;;;21.20;;
19951;SDS011;10137;49.406;19.484;2022-09-25T05:25:21;83.67;;;20.10;;
19951;SDS011;10137;49.406;19.484;2022-09-25T05:27:50;133.60;;;25.13;;
19951;SDS011;10137;49.406;19.484;2022-09-25T05:30:19;195.87;;;30.37;;
19951;SDS011;10137;49.406;19.484;2022-09-25T05:32:47;169.70;;;27.90;;
19951;SDS011;10137;49.406;19.484;2022-09-25T05:35:15;137.20;;;24.60;;
19951;SDS011;10137;49.406;19.484;2022-09-25T05:37:42;124.77;;;24.40;;
19951;SDS011;10137;49.406;19.484;2022-09-25T05:40:09;130.60;;;23.23;;
19951;SDS011;10137;49.406;19.484;2022-09-25T05:42:37;138.63;;;23.07;;
19951;SDS011;10137;49.406;19.484;2022-09-25T05:45:04;135.77;;;22.07;;
19951;SDS011;10137;49.406;19.484;2022-09-25T05:47:33;86.03;;;21.80;;
19951;SDS011;10137;49.406;19.484;2022-09-25T05:50:00;69.43;;;20.07;;
19951;SDS011;10137;49.406;19.484;2022-09-25T05:52:28;78.90;;;19.03;;
19951;SDS011;10137;49.406;19.484;2022-09-25T05:54:55;67.03;;;16.90;;
19951;SDS011;10137;49.406;19.484;2022-09-25T05:57:22;65.70;;;16.13;;
19951;SDS011;10137;49.406;19.484;2022-09-25T05:59:49;51.93;;;16.23;;
19951;SDS011;10137;49.406;19.484;2022-09-25T06:02:16;52.20;;;15.33;;
19951;SDS011;10137;49.406;19.484;2022-09-25T06:04:44;56.83;;;17.10;;
19951;SDS011;10137;49.406;19.484;2022-09-25T06:07:11;71.33;;;18.00;;
19951;SDS011;10137;49.406;19.484;2022-09-25T06:09:38;68.17;;;18.07;;
19951;SDS011;10137;49.406;19.484;2022-09-25T06:12:05;64.27;;;18.20;;
19951;SDS011;10137;49.406;19.484;2022-09-25T06:14:32;59.93;;;17.77;;
19951;SDS011;10137;49.406;19.484;2022-09-25T06:17:01;69.90;;;18.27;;
19951;SDS011;10137;49.406;19.484;2022-09-25T06:19:28;64.10;;;18.17;;
19951;SDS011;10137;49.406;19.484;2022-09-25T06:21:57;62.83;;;20.70;;
19951;SDS011;10137;49.406;19.484;2022-09-25T06:24:24;74.47;;;22.37;;
19951;SDS011;10137;49.406;19.484;2022-09-25T06:26:51;66.13;;;22.47;;
19951;SDS011;10137;49.406;19.484;2022-09-25T06:29:18;60.83;;;21.10;;
19951;SDS011;10137;49.406;19.484;2022-09-25T06:31:45;71.17;;;22.27;;
19951;SDS011;10137;49.406;19.484;2022-09-25T06:34:12;69.40;;;20.73;;
19951;SDS011;10137;49.406;19.484;2022-09-25T06:36:39;75.30;;;20.57;;
19951;SDS011;10137;49.406;19.484;2022-09-25T06:39:08;57.07;;;18.97;;
19951;SDS011;10137;49.406;19.484;2022-09-25T06:41:34;61.37;;;19.37;;
19951;SDS011;10137;49.406;19.484;2022-09-25T06:44:01;71.40;;;22.13;;
19951;SDS011;10137;49.406;19.484;2022-09-25T06:46:29;54.33;;;19.37;;
19951;SDS011;10137;49.406;19.484;2022-09-25T06:48:55;62.53;;;19.77;;
19951;SDS011;10137;49.406;19.484;2022-09-25T06:51:23;50.30;;;18.00;;
19951;SDS011;10137;49.406;19.484;2022-09-25T06:53:56;52.17;;;18.97;;
19951;SDS011;10137;49.406;19.484;2022-09-25T06:56:25;52.30;;;16.77;;
19951;SDS011;10137;49.406;19.484;2022-09-25T06:58:52;39.93;;;17.13;;
19951;SDS011;10137;49.406;19.484;2022-09-25T07:01:19;39.97;;;17.23;;
19951;SDS011;10137;49.406;19.484;2022-09-25T07:03:46;31.50;;;15.27;;
19951;SDS011;10137;49.406;19.484;2022-09-25T07:06:13;33.93;;;15.40;;
19951;SDS011;10137;49.406;19.484;2022-09-25T07:08:41;40.27;;;14.30;;
19951;SDS011;10137;49.406;19.484;2022-09-25T07:11:10;43.73;;;14.97;;
19951;SDS011;10137;49.406;19.484;2022-09-25T07:13:40;33.47;;;14.57;;
19951;SDS011;10137;49.406;19.484;2022-09-25T07:16:09;37.37;;;13.93;;
19951;SDS011;10137;49.406;19.484;2022-09-25T07:18:38;45.57;;;19.63;;
19951;SDS011;10137;49.406;19.484;2022-09-25T07:21:06;46.30;;;18.97;;
19951;SDS011;10137;49.406;19.484;2022-09-25T07:23:34;46.10;;;19.83;;
19951;SDS011;10137;49.406;19.484;2022-09-25T07:26:05;44.13;;;17.57;;
19951;SDS011;10137;49.406;19.484;2022-09-25T07:28:34;34.77;;;13.57;;
19951;SDS011;10137;49.406;19.484;2022-09-25T07:31:10;25.97;;;13.17;;
19951;SDS011;10137;49.406;19.484;2022-09-25T07:33:39;32.40;;;15.90;;
19951;SDS011;10137;49.406;19.484;2022-09-25T07:36:06;32.93;;;16.83;;
19951;SDS011;10137;49.406;19.484;2022-09-25T07:38:33;29.60;;;14.20;;
19951;SDS011;10137;49.406;19.484;2022-09-25T07:41:01;29.77;;;13.53;;
19951;SDS011;10137;49.406;19.484;2022-09-25T07:43:29;28.87;;;13.47;;
19951;SDS011;10137;49.406;19.484;2022-09-25T07:45:57;34.47;;;14.30;;
19951;SDS011;10137;49.406;19.484;2022-09-25T07:48:25;31.40;;;14.60;;
19951;SDS011;10137;49.406;19.484;2022-09-25T07:50:57;29.70;;;13.60;;
19951;SDS011;10137;49.406;19.484;2022-09-25T07:53:25;36.07;;;14.17;;
19951;SDS011;10137;49.406;19.484;2022-09-25T07:55:54;28.37;;;13.13;;
19951;SDS011;10137;49.406;19.484;2022-09-25T07:58:22;33.17;;;12.60;;
19951;SDS011;10137;49.406;19.484;2022-09-25T08:00:50;30.40;;;12.87;;
19951;SDS011;10137;49.406;19.484;2022-09-25T08:03:18;32.47;;;13.30;;
19951;SDS011;10137;49.406;19.484;2022-09-25T08:05:47;24.10;;;11.90;;
19951;SDS011;10137;49.406;19.484;2022-09-25T08:08:13;29.23;;;13.87;;
19951;SDS011;10137;49.406;19.484;2022-09-25T08:10:40;32.58;;;13.80;;
19951;SDS011;10137;49.406;19.484;2022-09-25T08:13:07;37.77;;;12.67;;
19951;SDS011;10137;49.406;19.484;2022-09-25T08:15:34;30.50;;;11.73;;
19951;SDS011;10137;49.406;19.484;2022-09-25T08:18:01;32.73;;;12.57;;
19951;SDS011;10137;49.406;19.484;2022-09-25T08:20:28;38.00;;;12.20;;
19951;SDS011;10137;49.406;19.484;2022-09-25T08:22:57;30.57;;;12.13;;
19951;SDS011;10137;49.406;19.484;2022-09-25T08:25:24;26.43;;;11.67;;
19951;SDS011;10137;49.406;19.484;2022-09-25T08:27:51;33.90;;;13.30;;
19951;SDS011;10137;49.406;19.484;2022-09-25T08:30:18;24.50;;;11.60;;
19951;SDS011;10137;49.406;19.484;2022-09-25T08:32:45;23.77;;;12.20;;
19951;SDS011;10137;49.406;19.484;2022-09-25T08:35:12;26.10;;;11.20;;
19951;SDS011;10137;49.406;19.484;2022-09-25T08:37:39;24.90;;;11.03;;
19951;SDS011;10137;49.406;19.484;2022-09-25T08:40:14;20.80;;;10.73;;
19951;SDS011;10137;49.406;19.484;2022-09-25T08:42:44;20.67;;;9.70;;
19951;SDS011;10137;49.406;19.484;2022-09-25T08:45:18;16.47;;;8.43;;
19951;SDS011;10137;49.406;19.484;2022-09-25T08:48:08;24.87;;;10.93;;
19951;SDS011;10137;49.406;19.484;2022-09-25T08:51:01;15.53;;;8.97;;
19951;SDS011;10137;49.406;19.484;2022-09-25T08:53:31;20.13;;;7.77;;
19951;SDS011;10137;49.406;19.484;2022-09-25T08:56:02;15.30;;;8.10;;
19951;SDS011;10137;49.406;19.484;2022-09-25T08:58:49;15.67;;;7.77;;
19951;SDS011;10137;49.406;19.484;2022-09-25T09:01:19;10.77;;;6.57;;
19951;SDS011;10137;49.406;19.484;2022-09-25T09:03:52;15.57;;;8.00;;
19951;SDS011;10137;49.406;19.484;2022-09-25T09:06:23;11.23;;;7.70;;
19951;SDS011;10137;49.406;19.484;2022-09-25T09:08:53;8.93;;;6.50;;
19951;SDS011;10137;49.406;19.484;2022-09-25T09:11:26;25.27;;;11.47;;
19951;SDS011;10137;49.406;19.484;2022-09-25T09:13:58;15.63;;;9.20;;
19951;SDS011;10137;49.406;19.484;2022-09-25T09:16:30;13.07;;;8.00;;
19951;SDS011;10137;49.406;19.484;2022-09-25T09:19:02;11.40;;;6.83;;
19951;SDS011;10137;49.406;19.484;2022-09-25T09:21:32;11.37;;;6.10;;
19951;SDS011;10137;49.406;19.484;2022-09-25T09:24:04;10.40;;;6.33;;
19951;SDS011;10137;49.406;19.484;2022-09-25T09:26:37;11.70;;;6.70;;
19951;SDS011;10137;49.406;19.484;2022-09-25T09:29:15;12.30;;;7.67;;
19951;SDS011;10137;49.406;19.484;2022-09-25T09:31:52;9.87;;;6.60;;
19951;SDS011;10137;49.406;19.484;2022-09-25T09:34:35;7.07;;;5.63;;
19951;SDS011;10137;49.406;19.484;2022-09-25T09:37:13;9.63;;;5.50;;
19951;SDS011;10137;49.406;19.484;2022-09-25T09:39:46;7.43;;;5.70;;
19951;SDS011;10137;49.406;19.484;2022-09-25T09:42:21;11.17;;;6.30;;
19951;SDS011;10137;49.406;19.484;2022-09-25T09:44:54;9.20;;;6.27;;
19951;SDS011;10137;49.406;19.484;2022-09-25T09:47:30;6.87;;;5.30;;
19951;SDS011;10137;49.406;19.484;2022-09-25T09:50:06;9.90;;;6.13;;
19951;SDS011;10137;49.406;19.484;2022-09-25T09:52:45;14.00;;;8.47;;
19951;SDS011;10137;49.406;19.484;2022-09-25T09:55:18;14.70;;;7.83;;
19951;SDS011;10137;49.406;19.484;2022-09-25T09:57:51;12.90;;;7.17;;
19951;SDS011;10137;49.406;19.484;2022-09-25T10:00:22;16.27;;;9.53;;
19951;SDS011;10137;49.406;19.484;2022-09-25T10:02:50;18.27;;;8.37;;
19951;SDS011;10137;49.406;19.484;2022-09-25T10:05:22;13.17;;;7.93;;
19951;SDS011;10137;49.406;19.484;2022-09-25T10:07:51;11.07;;;6.50;;
19951;SDS011;10137;49.406;19.484;2022-09-25T10:10:19;12.27;;;6.80;;
19951;SDS011;10137;49.406;19.484;2022-09-25T10:12:49;7.87;;;6.10;;
19951;SDS011;10137;49.406;19.484;2022-09-25T10:15:23;11.33;;;6.27;;
19951;SDS011;10137;49.406;19.484;2022-09-25T10:17:58;9.43;;;6.07;;
19951;SDS011;10137;49.406;19.484;2022-09-25T10:20:29;15.20;;;8.13;;
19951;SDS011;10137;49.406;19.484;2022-09-25T10:23:02;11.97;;;8.80;;
19951;SDS011;10137;49.406;19.484;2022-09-25T10:25:35;9.70;;;7.03;;
19951;SDS011;10137;49.406;19.484;2022-09-25T10:30:58;10.87;;;6.40;;
19951;SDS011;10137;49.406;19.484;2022-09-25T10:33:28;9.67;;;6.30;;
19951;SDS011;10137;49.406;19.484;2022-09-25T10:35:56;9.13;;;6.17;;
19951;SDS011;10137;49.406;19.484;2022-09-25T10:38:29;10.83;;;6.70;;
19951;SDS011;10137;49.406;19.484;2022-09-25T10:41:01;12.53;;;7.03;;
19951;SDS011;10137;49.406;19.484;2022-09-25T10:43:32;12.13;;;7.10;;
19951;SDS011;10137;49.406;19.484;2022-09-25T10:46:07;10.53;;;6.40;;
19951;SDS011;10137;49.406;19.484;2022-09-25T10:48:39;9.00;;;6.40;;
19951;SDS011;10137;49.406;19.484;2022-09-25T10:51:24;8.77;;;6.50;;
19951;SDS011;10137;49.406;19.484;2022-09-25T10:53:52;9.53;;;6.17;;
19951;SDS011;10137;49.406;19.484;2022-09-25T10:56:35;8.77;;;6.20;;
19951;SDS011;10137;49.406;19.484;2022-09-25T10:59:11;12.10;;;7.07;;
19951;SDS011;10137;49.406;19.484;2022-09-25T11:01:42;13.13;;;7.40;;
19951;SDS011;10137;49.406;19.484;2022-09-25T11:04:18;21.97;;;9.53;;
19951;SDS011;10137;49.406;19.484;2022-09-25T11:06:49;23.80;;;11.50;;
19951;SDS011;10137;49.406;19.484;2022-09-25T11:09:18;16.83;;;8.13;;
19951;SDS011;10137;49.406;19.484;2022-09-25T11:11:47;11.33;;;6.93;;
19951;SDS011;10137;49.406;19.484;2022-09-25T11:14:22;9.53;;;5.97;;
19951;SDS011;10137;49.406;19.484;2022-09-25T11:16:56;9.03;;;6.10;;
19951;SDS011;10137;49.406;19.484;2022-09-25T11:19:26;8.90;;;6.57;;
19951;SDS011;10137;49.406;19.484;2022-09-25T11:22:09;10.93;;;6.90;;
19951;SDS011;10137;49.406;19.484;2022-09-25T11:24:57;11.67;;;7.07;;
19951;SDS011;10137;49.406;19.484;2022-09-25T11:27:32;12.83;;;7.33;;
19951;SDS011;10137;49.406;19.484;2022-09-25T11:30:04;14.10;;;8.73;;
19951;SDS011;10137;49.406;19.484;2022-09-25T11:32:38;18.23;;;9.40;;
19951;SDS011;10137;49.406;19.484;2022-09-25T11:35:15;14.10;;;9.15;;
19951;SDS011;10137;49.406;19.484;2022-09-25T11:38:06;11.30;;;7.57;;
19951;SDS011;10137;49.406;19.484;2022-09-25T11:40:51;12.10;;;7.17;;
19951;SDS011;10137;49.406;19.484;2022-09-25T11:43:43;8.90;;;6.47;;
19951;SDS011;10137;49.406;19.484;2022-09-25T11:46:20;9.57;;;6.60;;
19951;SDS011;10137;49.406;19.484;2022-09-25T11:48:54;11.23;;;6.77;;
19951;SDS011;10137;49.406;19.484;2022-09-25T11:54:32;8.87;;;6.70;;
19951;SDS011;10137;49.406;19.484;2022-09-25T11:57:18;11.83;;;6.83;;
19951;SDS011;10137;49.406;19.484;2022-09-25T11:59:57;8.77;;;6.70;;
19951;SDS011;10137;49.406;19.484;2022-09-25T12:02:31;9.07;;;6.87;;
19951;SDS011;10137;49.406;19.484;2022-09-25T12:08:15;8.80;;;5.80;;
19951;SDS011;10137;49.406;19.484;2022-09-25T12:11:03;8.80;;;6.07;;
19951;SDS011;10137;49.406;19.484;2022-09-25T12:13:40;7.63;;;5.70;;
19951;SDS011;10137;49.406;19.484;2022-09-25T12:16:17;14.20;;;6.57;;
19951;SDS011;10137;49.406;19.484;2022-09-25T12:18:54;8.30;;;5.43;;
19951;SDS011;10137;49.406;19.484;2022-09-25T12:21:31;13.40;;;7.20;;
19951;SDS011;10137;49.406;19.484;2022-09-25T12:24:07;12.40;;;6.30;;
19951;SDS011;10137;49.406;19.484;2022-09-25T12:26:44;9.40;;;6.53;;
19951;SDS011;10137;49.406;19.484;2022-09-25T12:29:20;15.73;;;10.23;;
19951;SDS011;10137;49.406;19.484;2022-09-25T12:31:58;25.23;;;15.77;;
19951;SDS011;10137;49.406;19.484;2022-09-25T12:34:36;24.37;;;13.97;;
19951;SDS011;10137;49.406;19.484;2022-09-25T12:37:16;21.33;;;13.27;;
19951;SDS011;10137;49.406;19.484;2022-09-25T12:39:49;10.13;;;6.87;;
19951;SDS011;10137;49.406;19.484;2022-09-25T12:42:22;17.57;;;7.27;;
19951;SDS011;10137;49.406;19.484;2022-09-25T12:45:08;11.60;;;8.20;;
19951;SDS011;10137;49.406;19.484;2022-09-25T12:47:41;74.57;;;40.17;;
19951;SDS011;10137;49.406;19.484;2022-09-25T12:50:13;27.90;;;15.83;;
19951;SDS011;10137;49.406;19.484;2022-09-25T12:52:43;25.80;;;15.33;;
19951;SDS011;10137;49.406;19.484;2022-09-25T12:55:15;62.93;;;29.43;;
19951;SDS011;10137;49.406;19.484;2022-09-25T12:57:47;21.93;;;11.97;;
19951;SDS011;10137;49.406;19.484;2022-09-25T13:00:19;11.20;;;7.23;;
19951;SDS011;10137;49.406;19.484;2022-09-25T13:02:51;8.80;;;6.10;;
19951;SDS011;10137;49.406;19.484;2022-09-25T13:05:24;7.67;;;5.47;;
19951;SDS011;10137;49.406;19.484;2022-09-25T13:07:59;23.43;;;13.37;;
19951;SDS011;10137;49.406;19.484;2022-09-25T13:10:36;9.30;;;5.77;;
19951;SDS011;10137;49.406;19.484;2022-09-25T13:13:08;7.43;;;4.70;;
19951;SDS011;10137;49.406;19.484;2022-09-25T13:15:43;9.63;;;5.03;;
19951;SDS011;10137;49.406;19.484;2022-09-25T13:18:15;6.60;;;5.07;;
19951;SDS011;10137;49.406;19.484;2022-09-25T13:20:48;6.90;;;4.67;;
19951;SDS011;10137;49.406;19.484;2022-09-25T13:23:26;8.80;;;4.27;;
19951;SDS011;10137;49.406;19.484;2022-09-25T13:25:56;8.57;;;4.63;;
19951;SDS011;10137;49.406;19.484;2022-09-25T13:28:27;6.57;;;4.77;;
19951;SDS011;10137;49.406;19.484;2022-09-25T13:31:01;7.87;;;5.00;;
19951;SDS011;10137;49.406;19.484;2022-09-25T13:33:33;7.20;;;5.13;;
19951;SDS011;10137;49.406;19.484;2022-09-25T13:36:09;7.87;;;4.93;;
19951;SDS011;10137;49.406;19.484;2022-09-25T13:38:43;6.83;;;4.90;;
19951;SDS011;10137;49.406;19.484;2022-09-25T13:41:28;5.97;;;4.30;;
19951;SDS011;10137;49.406;19.484;2022-09-25T13:50:18;6.17;;;4.47;;
19951;SDS011;10137;49.406;19.484;2022-09-25T13:52:52;5.37;;;4.43;;
19951;SDS011;10137;49.406;19.484;2022-09-25T14:01:33;5.60;;;4.43;;
19951;SDS011;10137;49.406;19.484;2022-09-25T14:04:14;5.60;;;4.10;;
19951;SDS011;10137;49.406;19.484;2022-09-25T14:06:47;5.50;;;4.40;;
19951;SDS011;10137;49.406;19.484;2022-09-25T14:09:23;5.97;;;4.47;;
19951;SDS011;10137;49.406;19.484;2022-09-25T14:11:55;8.30;;;4.80;;
19951;SDS011;10137;49.406;19.484;2022-09-25T14:14:31;6.87;;;4.80;;
19951;SDS011;10137;49.406;19.484;2022-09-25T14:17:05;7.23;;;4.30;;
19951;SDS011;10137;49.406;19.484;2022-09-25T14:19:35;7.50;;;4.53;;
19951;SDS011;10137;49.406;19.484;2022-09-25T14:22:06;7.27;;;4.60;;
19951;SDS011;10137;49.406;19.484;2022-09-25T14:24:44;6.47;;;4.40;;
19951;SDS011;10137;49.406;19.484;2022-09-25T14:27:13;5.80;;;4.33;;
19951;SDS011;10137;49.406;19.484;2022-09-25T14:29:47;9.37;;;4.77;;
19951;SDS011;10137;49.406;19.484;2022-09-25T14:32:17;7.07;;;5.00;;
19951;SDS011;10137;49.406;19.484;2022-09-25T14:35:02;6.77;;;4.90;;
19951;SDS011;10137;49.406;19.484;2022-09-25T14:37:49;7.13;;;5.27;;
19951;SDS011;10137;49.406;19.484;2022-09-25T14:40:33;8.10;;;5.40;;
19951;SDS011;10137;49.406;19.484;2022-09-25T14:46:04;9.90;;;6.77;;
19951;SDS011;10137;49.406;19.484;2022-09-25T14:48:34;11.93;;;7.70;;
19951;SDS011;10137;49.406;19.484;2022-09-25T14:51:05;10.93;;;7.43;;
19951;SDS011;10137;49.406;19.484;2022-09-25T14:53:36;13.53;;;7.90;;
19951;SDS011;10137;49.406;19.484;2022-09-25T14:56:09;14.83;;;9.43;;
19951;SDS011;10137;49.406;19.484;2022-09-25T14:58:39;13.90;;;8.13;;
19951;SDS011;10137;49.406;19.484;2022-09-25T15:01:14;10.27;;;7.40;;
19951;SDS011;10137;49.406;19.484;2022-09-25T15:03:47;11.50;;;6.90;;
19951;SDS011;10137;49.406;19.484;2022-09-25T15:06:25;10.63;;;7.77;;
19951;SDS011;10137;49.406;19.484;2022-09-25T15:08:53;10.43;;;6.97;;
19951;SDS011;10137;49.406;19.484;2022-09-25T15:11:22;10.33;;;6.90;;
19951;SDS011;10137;49.406;19.484;2022-09-25T15:13:53;10.57;;;7.27;;